Potter Cove, Prudence Island, RI current weather conditions

sailwx.info

Wind from 006 at 5 knots gusting 7

Air temperature -0.6° C

Last reported at 2019-Dec-12 19:00 UTC.
Time now 2019-Dec-12 19:40 UTC

Location: N 41°38' W 071°20'.
View on Google Maps.

See reports from other nearby stations

  
Tides and Currents Weather Stations Pressure Air Temp Water Temp Dewpoint Dewpoint Depression Visibility Wind Speed Wind Dir Waves Ship Positions
date/time (UTC)wind fromknots sea level pressurealtimeterstation pressurevisibilityair tempwater tempwave heightnotes
2019-Dec-12 19:00 006 5 gusting 7 -0.6
2019-Dec-12 18:48 015 4 gusting 8 -0.6
2019-Dec-12 18:42 053 3 gusting 6 -0.6
2019-Dec-12 18:36 036 4 gusting 6 -0.6
2019-Dec-12 18:30 026 4 gusting 6 -0.6
2019-Dec-12 18:24 033 6 gusting 7 -0.6
2019-Dec-12 18:18 040 6 gusting 9 -0.6
2019-Dec-12 18:12 007 1 gusting 6 -0.6
2019-Dec-12 18:06 338 1 gusting 4 -0.6
2019-Dec-12 18:00 042 2 gusting 7 -1.1
2019-Dec-12 17:54 037 4 gusting 6 -0.6
2019-Dec-12 17:48 008 5 gusting 7 -1.1
2019-Dec-12 17:42 004 4 gusting 9 -0.6
2019-Dec-12 17:36 007 5 gusting 9 -0.6
2019-Dec-12 17:30 019 3 gusting 7 -1.1
2019-Dec-12 17:24 005 6 gusting 10 -1.1
2019-Dec-12 17:18 358 3 gusting 11 -1.1
2019-Dec-12 17:12 023 6 gusting 9 -1.1
2019-Dec-12 17:06 011 5 gusting 11 -1.1
2019-Dec-12 17:00 023 6 gusting 10 -1.1
2019-Dec-12 16:54 001 6 gusting 9 -1.1
2019-Dec-12 16:48 352 5 gusting 10 -1.1
2019-Dec-12 16:42 359 6 gusting 10 -1.1
2019-Dec-12 16:36 358 6 gusting 10 -1.7
2019-Dec-12 16:30 017 6 gusting 10 -1.7
2019-Dec-12 16:24 014 8 gusting 11 -1.7
2019-Dec-12 16:18 019 7 gusting 12 -1.1
2019-Dec-12 16:12 026 7 gusting 12 -1.7
2019-Dec-12 16:06 028 8 gusting 12 -1.7
2019-Dec-12 16:00 -1.7
2019-Dec-12 15:54 023 8 gusting 12 -1.7
2019-Dec-12 15:48 023 6 gusting 11 -1.1
2019-Dec-12 15:42 011 6 gusting 11 -1.7
2019-Dec-12 15:36 005 5 gusting 9 -1.7
2019-Dec-12 15:30 352 6 gusting 11 -1.7
2019-Dec-12 15:24 008 6 gusting 11 -1.7
2019-Dec-12 15:18 021 7 gusting 11 -1.7
2019-Dec-12 15:12 329 2 gusting 8 -1.7
2019-Dec-12 15:06 015 6 gusting 9 -1.7
2019-Dec-12 15:00 340 3 gusting 7 -1.7
2019-Dec-12 14:54 341 2 gusting 5 -2.2
2019-Dec-12 14:48 360 5 gusting 9 -2.2
2019-Dec-12 14:42 340 4 gusting 9 -2.2
2019-Dec-12 14:36 338 1 gusting 8 -2.2
2019-Dec-12 14:30 341 4 gusting 8 -2.8
2019-Dec-12 14:24 329 6 gusting 10 -2.2
2019-Dec-12 14:18 326 4 gusting 7 -2.2
2019-Dec-12 14:12 334 4 gusting 6 -2.8
2019-Dec-12 14:06 330 2 gusting 6 -2.8
2019-Dec-12 14:00 341 4 gusting 8 -3.3
2019-Dec-12 13:54 340 4 gusting 7 -3.3
2019-Dec-12 13:48 340 4 gusting 7 -3.3
2019-Dec-12 13:42 337 4 gusting 9 -3.3
2019-Dec-12 13:36 336 3 gusting 7 -3.3
2019-Dec-12 13:30 342 3 gusting 11 -3.3
2019-Dec-12 13:24 353 2 gusting 7 -3.3
2019-Dec-12 13:18 337 3 gusting 6 -3.9
2019-Dec-12 13:12 350 4 gusting 7 -3.9
2019-Dec-12 13:06 357 3 gusting 6 -3.9
2019-Dec-12 13:00 357 4 gusting 7 -3.9
2019-Dec-12 12:54 339 3 gusting 6 -3.9
2019-Dec-12 12:48 335 4 gusting 9 -4.4
2019-Dec-12 12:42 340 4 gusting 8 -4.4
2019-Dec-12 12:36 345 4 gusting 8 -4.4
2019-Dec-12 12:30 339 3 gusting 7 -4.4
2019-Dec-12 12:24 355 6 gusting 11 -4.4
2019-Dec-12 12:18 336 4 gusting 11 -4.4
2019-Dec-12 12:12 346 5 gusting 11 -4.4
2019-Dec-12 12:06 334 4 gusting 7 -4.4
2019-Dec-12 12:00 342 5 gusting 10 -4.4
2019-Dec-12 11:54 354 5 gusting 9 -4.4
2019-Dec-12 11:48 352 5 gusting 9 -4.4
2019-Dec-12 11:42 351 4 gusting 8 -4.4
2019-Dec-12 11:36 348 2 gusting 8 -4.4
2019-Dec-12 11:30 341 4 gusting 12 -4.4
2019-Dec-12 11:24 341 6 gusting 11 -4.4
2019-Dec-12 11:18 336 4 gusting 10 -4.4
2019-Dec-12 11:12 341 6 gusting 11 -4.4
2019-Dec-12 11:06 336 5 gusting 12 -4.4
2019-Dec-12 11:00 338 7 gusting 14 -4.4
2019-Dec-12 10:54 346 7 gusting 16 -3.9
2019-Dec-12 10:48 347 7 gusting 14 -3.9
2019-Dec-12 10:42 347 7 gusting 15 -3.9
2019-Dec-12 10:36 345 9 gusting 15 -3.9
2019-Dec-12 10:30 335 6 gusting 17 -3.9
2019-Dec-12 10:24 337 8 gusting 15 -3.9
2019-Dec-12 10:18 336 9 gusting 17 -3.9
2019-Dec-12 10:12 333 6 gusting 15 -3.9
2019-Dec-12 10:06 331 8 gusting 16 -3.9
2019-Dec-12 10:00 336 6 gusting 18 -3.3
2019-Dec-12 09:54 334 9 gusting 16 -3.3
2019-Dec-12 09:48 335 7 gusting 19 -3.9
2019-Dec-12 09:42 336 5 gusting 13 -3.9
2019-Dec-12 09:36 334 7 gusting 19 -3.3
2019-Dec-12 09:30 335 8 gusting 17 -3.3
2019-Dec-12 09:24 335 8 gusting 14 -3.3
2019-Dec-12 09:18 329 8 gusting 17 -3.3
2019-Dec-12 09:12 329 8 gusting 17 -3.3
2019-Dec-12 09:06 328 7 gusting 13 -3.3
2019-Dec-12 09:00 330 7 gusting 13 -3.3
2019-Dec-12 08:54 346 5 gusting 13 -3.3
2019-Dec-12 08:48 349 6 gusting 12 -3.3
2019-Dec-12 08:42 337 6 gusting 14 -3.3
2019-Dec-12 08:36 347 6 gusting 16 -3.3
2019-Dec-12 08:30 352 7 gusting 12 -3.3
2019-Dec-12 08:24 348 5 gusting 13 -3.3
2019-Dec-12 08:18 346 8 gusting 14 -3.3
2019-Dec-12 08:12 352 6 gusting 13 -3.3
2019-Dec-12 08:06 354 8 gusting 13 -3.3
2019-Dec-12 08:00 353 6 gusting 13 -3.3
2019-Dec-12 07:54 358 6 gusting 14 -2.8
2019-Dec-12 07:48 343 7 gusting 14 -2.8
2019-Dec-12 07:42 349 8 gusting 16 -2.8
2019-Dec-12 07:36 350 6 gusting 16 -2.8
2019-Dec-12 07:30 355 7 gusting 18 -2.8
2019-Dec-12 07:24 355 7 gusting 13 -2.8
2019-Dec-12 07:18 343 6 gusting 17 -2.8
2019-Dec-12 07:00 337 6 gusting 23 -2.2
2019-Dec-12 06:54 330 9 gusting 19 -2.2
2019-Dec-12 06:48 337 5 gusting 13 -2.2
2019-Dec-12 06:42 329 9 gusting 14 -1.7
2019-Dec-12 06:36 341 6 gusting 19 -1.7
2019-Dec-12 06:30 353 6 gusting 14 -1.7
2019-Dec-12 06:24 318 6 gusting 14 -1.7
2019-Dec-12 06:18 311 7 gusting 11 -1.7
2019-Dec-12 06:12 313 5 gusting 9 -1.7
2019-Dec-12 06:06 310 5 gusting 11 -1.7
2019-Dec-12 06:00 306 4 gusting 6 -1.7
2019-Dec-12 05:54 316 5 gusting 8 -1.7
2019-Dec-12 05:48 304 5 gusting 8 -1.7
2019-Dec-12 05:42 301 5 gusting 8 -1.7
2019-Dec-12 05:36 304 4 gusting 11 -1.7
2019-Dec-12 05:30 308 6 gusting 10 -1.1
2019-Dec-12 05:24 291 6 gusting 10 -1.1
2019-Dec-12 05:18 281 3 gusting 8 -1.1
2019-Dec-12 05:12 291 4 gusting 7 -1.7
2019-Dec-12 05:06 299 4 gusting 10 -1.1
2019-Dec-12 05:00 293 6 gusting 10 -1.1
2019-Dec-12 04:54 282 3 gusting 7 -1.1
2019-Dec-12 04:48 293 6 gusting 10 -1.1
2019-Dec-12 04:42 286 6 gusting 10 -1.1
2019-Dec-12 04:36 293 5 gusting 9 -1.1
2019-Dec-12 04:30 294 5 gusting 10 -1.1
2019-Dec-12 04:24 291 5 gusting 8 -1.1
2019-Dec-12 04:18 283 4 gusting 9 -1.1
2019-Dec-12 04:12 295 6 gusting 9 -0.6
2019-Dec-12 04:06 297 6 gusting 10 -0.6
2019-Dec-12 04:00 293 7 gusting 10 -0.6
2019-Dec-12 03:54 290 6 gusting 10 -0.6
2019-Dec-12 03:48 293 6 gusting 13 -0.6
2019-Dec-12 03:42 290 5 gusting 10 -0.6
2019-Dec-12 03:36 296 7 gusting 11 -0.6
2019-Dec-12 03:30 290 6 gusting 11 -0.6
2019-Dec-12 03:24 287 8 gusting 12 -0.6
2019-Dec-12 03:18 287 6 gusting 13 -0.6
2019-Dec-12 03:12 280 4 gusting 11 -0.6
2019-Dec-12 03:06 281 5 gusting 10 -0.6
2019-Dec-12 03:00 270 5 gusting 9 -0.6
2019-Dec-12 02:54 271 6 gusting 10 -0.6
2019-Dec-12 02:48 266 7 gusting 11 -0.6
2019-Dec-12 02:42 264 7 gusting 12 -0.6
2019-Dec-12 02:36 264 6 gusting 8 -0.6
2019-Dec-12 02:30 269 5 gusting 9 -0.6
2019-Dec-12 02:24 264 6 gusting 10 -0.6
2019-Dec-12 02:18 267 6 gusting 10 -0.6
2019-Dec-12 02:12 259 6 gusting 10 -0.6
2019-Dec-12 02:06 262 6 gusting 11 -0.6
2019-Dec-12 02:00 263 6 gusting 10 -0.6
2019-Dec-12 01:54 261 6 gusting 9 -0.6
2019-Dec-12 01:48 261 6 gusting 9 -0.6
2019-Dec-12 01:42 266 6 gusting 10 -0.6
2019-Dec-12 01:36 267 6 gusting 10 -0.6
2019-Dec-12 01:30 264 5 gusting 9 -0.6
2019-Dec-12 01:24 266 7 gusting 12 -0.6
2019-Dec-12 01:18 263 6 gusting 12 -0.6
2019-Dec-12 01:12 264 6 gusting 9 -0.6
2019-Dec-12 01:06 258 6 gusting 9 -0.6
2019-Dec-12 01:00 259 6 gusting 10 -0.6
2019-Dec-12 00:54 259 6 gusting 10 -0.6
2019-Dec-12 00:48 261 6 gusting 10 -0.6
2019-Dec-12 00:42 256 7 gusting 10 -0.6
2019-Dec-12 00:36 258 6 gusting 11 -0.6
2019-Dec-12 00:30 261 6 gusting 9 -0.6
2019-Dec-12 00:24 259 6 gusting 9 -0.6
2019-Dec-12 00:18 258 6 gusting 11 -0.6
2019-Dec-12 00:12 254 6 gusting 10 -0.6
2019-Dec-12 00:06 258 6 gusting 9 -0.6
2019-Dec-12 00:00 263 6 gusting 11 -0.6
2019-Dec-11 23:54 257 6 gusting 9 -0.6
2019-Dec-11 23:48 259 6 gusting 11 -0.6
2019-Dec-11 23:42 255 5 gusting 8 -0.6
2019-Dec-11 23:36 253 5 gusting 6 -0.6
2019-Dec-11 23:30 260 3 gusting 6 -1.1
2019-Dec-11 23:24 263 3 gusting 6 -1.1
2019-Dec-11 23:18 266 4 gusting 8 -1.1
2019-Dec-11 23:12 260 3 gusting 7 -1.1
2019-Dec-11 23:06 263 3 gusting 8 -1.1
2019-Dec-11 23:00 267 3 gusting 6 -1.1
2019-Dec-11 22:54 272 5 gusting 7 -1.1
2019-Dec-11 22:48 271 4 gusting 7 -1.1
2019-Dec-11 22:42 270 4 gusting 7 -1.1
2019-Dec-11 22:36 271 4 gusting 7 -0.6
2019-Dec-11 22:30 264 5 gusting 9 -0.6
2019-Dec-11 22:24 262 4 gusting 8 -0.6
2019-Dec-11 22:18 269 4 gusting 6 -1.1
2019-Dec-11 22:12 270 3 gusting 8 -0.6
2019-Dec-11 22:06 272 4 gusting 6 -0.6
2019-Dec-11 22:00 278 5 gusting 8 -0.6
2019-Dec-11 21:54 281 4 gusting 9 -0.6
2019-Dec-11 21:48 282 5 gusting 9 -0.6
2019-Dec-11 21:42 291 6 gusting 10 -0.6
2019-Dec-11 21:36 279 6 gusting 9 -0.6
2019-Dec-11 21:30 280 5 gusting 8 -0.6
2019-Dec-11 21:24 262 6 gusting 8 -0.6
2019-Dec-11 21:18 259 5 gusting 9 -0.6
2019-Dec-11 21:12 277 3 gusting 6 -0.6
2019-Dec-11 21:06 280 5 gusting 6 -0.6
2019-Dec-11 18:36 322 4 gusting 11 -0.6
2019-Dec-11 18:30 309 4 gusting 7 -0.6
2019-Dec-11 18:24 342 2 gusting 6 -0.6
2019-Dec-11 18:18 343 3 gusting 6 -0.6
2019-Dec-11 18:12 324 1 gusting 6 -0.6
2019-Dec-11 18:06 333 3 gusting 6 -1.1
2019-Dec-11 18:00 335 2 gusting 9 -1.1
2019-Dec-11 17:54 325 3 gusting 7 -1.1
2019-Dec-11 17:48 332 0 gusting 3 -0.6
2019-Dec-11 17:42 315 3 gusting 5 -1.1
2019-Dec-11 17:36 342 3 gusting 6 -1.1
2019-Dec-11 17:30 328 2 gusting 6 -1.1
2019-Dec-11 17:24 006 3 gusting 7 -1.1
2019-Dec-11 17:18 017 5 gusting 7 -1.1
2019-Dec-11 17:12 344 4 gusting 7 -1.1
2019-Dec-11 17:06 351 3 gusting 6 -1.1
2019-Dec-11 17:00 353 3 gusting 5 -1.1
2019-Dec-11 16:54 337 3 gusting 6 -1.1
2019-Dec-11 16:48 351 1 gusting 4 -1.1
2019-Dec-11 16:42 347 1 gusting 5 -1.7
2019-Dec-11 16:36 324 3 gusting 6 -1.7
2019-Dec-11 16:30 336 3 gusting 7 -1.7
2019-Dec-11 16:24 327 3 gusting 8 -1.7
2019-Dec-11 16:18 329 4 gusting 8 -2.2
2019-Dec-11 16:12 356 3 gusting 9 -2.2
2019-Dec-11 16:06 336 4 gusting 9 -2.2
2019-Dec-11 16:00 333 3 gusting 11 -1.7
2019-Dec-11 15:54 341 3 gusting 6 -1.7
2019-Dec-11 15:48 351 3 gusting 7 -1.7
2019-Dec-11 15:42 344 4 gusting 6 -1.7
2019-Dec-11 15:36 003 2 gusting 4 -1.7
2019-Dec-11 15:30 010 2 gusting 4 -1.7
2019-Dec-11 15:24 350 1 gusting 3 -1.7
2019-Dec-11 15:18 001 -1.7
2019-Dec-11 15:12 346 2 gusting 5 -1.7
2019-Dec-11 15:06 013 2 gusting 5 -1.7
2019-Dec-11 15:00 009 2 gusting 4 -2.2
2019-Dec-11 14:54 353 3 gusting 8 -2.2
2019-Dec-11 14:48 353 5 gusting 7 -2.2
2019-Dec-11 14:42 352 3 gusting 6 -2.2
2019-Dec-11 14:36 351 3 gusting 7 -2.2
2019-Dec-11 14:30 347 4 gusting 7 -2.2
2019-Dec-11 14:24 344 3 gusting 8 -2.2
2019-Dec-11 14:18 334 3 gusting 8 -2.2
2019-Dec-11 14:12 349 4 gusting 7 -2.2
2019-Dec-11 14:06 356 5 gusting 7 -1.7
2019-Dec-11 14:00 358 6 gusting 9 -2.2
2019-Dec-11 13:54 348 5 gusting 9 -1.7
2019-Dec-11 13:48 336 5 gusting 10 -1.7
2019-Dec-11 13:42 352 7 gusting 11 -1.7
2019-Dec-11 13:36 341 4 gusting 7 -1.7
2019-Dec-11 13:30 330 5 gusting 11 -1.1
2019-Dec-11 13:24 002 4 gusting 7 -1.1
2019-Dec-11 13:18 008 5 gusting 7 -1.1
2019-Dec-11 13:12 004 6 gusting 11 -1.1
2019-Dec-11 13:06 002 6 gusting 13 -1.1
2019-Dec-11 13:00 354 6 gusting 12 -1.1
2019-Dec-11 12:54 003 8 gusting 13 -1.1
2019-Dec-11 12:48 358 6 gusting 13 -1.1
2019-Dec-11 12:42 357 7 gusting 11 -1.1
2019-Dec-11 12:36 356 7 gusting 12 -1.1
2019-Dec-11 12:30 003 7 gusting 11 -0.6
2019-Dec-11 12:24 357 6 gusting 14 -0.6
2019-Dec-11 12:18 357 5 gusting 11 -0.6
2019-Dec-11 12:12 360 8 gusting 13 -0.6
2019-Dec-11 12:06 358 6 gusting 11 -0.6
2019-Dec-11 12:00 348 5 gusting 14 -0.6
2019-Dec-11 11:54 358 3 gusting 11 -0.6
2019-Dec-11 11:48 350 5 gusting 13 -0.6
2019-Dec-11 11:42 350 6 gusting 11 -0.6
2019-Dec-11 11:36 001 6 gusting 12 -0.0
2019-Dec-11 11:30 008 7 gusting 11 -0.0
2019-Dec-11 11:24 028 9 gusting 14 -0.0
2019-Dec-11 11:18 030 13 gusting 17 -0.0
2019-Dec-11 11:12 030 13 gusting 16 -0.0
2019-Dec-11 11:06 025 11 gusting 15 -0.0
2019-Dec-11 11:00 022 9 gusting 17 -0.0
2019-Dec-11 10:54 028 10 gusting 13 0.6
2019-Dec-11 10:48 021 8 gusting 12 0.6
2019-Dec-11 10:42 007 6 gusting 11 0.6
2019-Dec-11 10:36 005 6 gusting 13 0.6
2019-Dec-11 10:30 350 5 gusting 12 0.6
2019-Dec-11 10:24 353 4 gusting 12 0.6
2019-Dec-11 10:18 360 8 gusting 13 0.6
2019-Dec-11 10:12 350 6 gusting 17 0.6
2019-Dec-11 10:06 356 10 gusting 15 0.6
2019-Dec-11 10:00 1.1
2019-Dec-11 09:54 006 7 gusting 13 1.1
2019-Dec-11 09:48 012 8 gusting 13 1.1
2019-Dec-11 09:42 001 3 gusting 7 1.1
2019-Dec-11 09:36 002 3 gusting 9 1.1
2019-Dec-11 09:30 339 4 gusting 7 1.1
2019-Dec-11 09:24 338 4 gusting 6 1.1
2019-Dec-11 09:18 329 3 gusting 6 1.1
2019-Dec-11 09:12 349 3 gusting 5 1.1
2019-Dec-11 09:06 342 4 gusting 7 1.1
2019-Dec-11 09:00 332 3 gusting 7 1.1
2019-Dec-11 08:54 343 5 gusting 7 1.1
2019-Dec-11 08:48 329 4 gusting 7 1.7
2019-Dec-11 08:42 335 4 gusting 7 1.7
2019-Dec-11 08:36 330 5 gusting 6 1.7
2019-Dec-11 08:30 342 3 gusting 6 1.7
2019-Dec-11 08:24 331 3 gusting 6 1.7
2019-Dec-11 08:18 350 4 gusting 8 2.2
2019-Dec-11 08:12 339 3 gusting 8 2.2
2019-Dec-11 08:06 338 5 gusting 7 2.2
2019-Dec-11 08:00 326 2 gusting 5 2.8
2019-Dec-11 07:54 340 2 gusting 6 2.8
2019-Dec-11 07:48 339 3 gusting 7 2.8
2019-Dec-11 07:42 334 3 gusting 6 2.8
2019-Dec-11 07:36 339 4 gusting 7 2.8
2019-Dec-11 07:30 327 3 gusting 7 2.8
2019-Dec-11 07:24 335 3 gusting 6 3.3
2019-Dec-11 07:18 330 3 gusting 7 3.3
2019-Dec-11 07:12 336 3 gusting 7 3.3
2019-Dec-11 07:06 340 5 gusting 9 3.3
2019-Dec-11 07:00 328 5 gusting 9 3.3
2019-Dec-11 06:54 331 4 gusting 8 3.3
2019-Dec-11 06:48 332 3 gusting 6 3.3
2019-Dec-11 06:42 330 3 gusting 7 3.3
2019-Dec-11 06:36 345 2 gusting 6 3.3
2019-Dec-11 06:30 341 2 gusting 7 3.3
2019-Dec-11 06:24 347 1 gusting 7 3.9
2019-Dec-11 06:18 349 4 gusting 7 3.9
2019-Dec-11 06:12 329 3 gusting 6 3.9
2019-Dec-11 06:06 331 2 gusting 6 3.9
2019-Dec-11 06:00 339 2 gusting 6 3.9
2019-Dec-11 05:54 336 2 gusting 6 3.9
2019-Dec-11 05:48 001 2 gusting 5 4.4
2019-Dec-11 05:42 003 4 gusting 9 4.4
2019-Dec-11 05:36 010 5 gusting 9 4.4
2019-Dec-11 05:30 009 5 gusting 7 4.4
2019-Dec-11 05:24 012 5 gusting 10 4.4
2019-Dec-11 05:18 005 6 gusting 11 4.4
2019-Dec-11 05:12 005 6 gusting 12 4.4
2019-Dec-11 05:06 011 5 gusting 12 5.0
2019-Dec-11 05:00 001 7 gusting 13 5.0
2019-Dec-11 04:54 340 4 gusting 9 5.6
2019-Dec-11 04:48 002 2 gusting 5 5.6
2019-Dec-11 04:42 349 3 gusting 7 5.6
2019-Dec-11 04:36 002 4 gusting 6 5.6
2019-Dec-11 04:30 358 3 gusting 6 5.6
2019-Dec-11 04:24 340 3 gusting 7 5.6
2019-Dec-11 04:18 322 3 gusting 6 6.1
2019-Dec-11 04:12 347 1 gusting 5 6.1
2019-Dec-11 04:06 332 2 gusting 5 6.1
2019-Dec-11 04:00 307 3 gusting 7 6.1
2019-Dec-11 03:54 333 3 gusting 7 6.7
2019-Dec-11 03:48 304 2 gusting 5 6.7
2019-Dec-11 03:42 333 3 gusting 5 7.2
2019-Dec-11 03:36 342 1 gusting 8 7.2
2019-Dec-11 03:30 341 3 gusting 8 7.2
2019-Dec-11 03:24 344 4 gusting 7 7.2
2019-Dec-11 03:18 349 3 gusting 9 7.2
2019-Dec-11 03:12 352 3 gusting 9 7.2
2019-Dec-11 03:06 353 3 gusting 9 7.2
2019-Dec-11 03:00 348 3 gusting 6 7.2
2019-Dec-11 02:54 346 3 gusting 6 7.2
2019-Dec-11 02:48 338 3 gusting 7 7.2
2019-Dec-11 02:42 336 2 gusting 6 7.2
2019-Dec-11 02:36 338 3 gusting 6 7.8
2019-Dec-11 02:30 334 2 gusting 6 7.8
2019-Dec-11 02:24 315 3 gusting 6 7.8
2019-Dec-11 02:18 336 3 gusting 6 7.8
2019-Dec-11 02:12 358 4 gusting 8 7.8
2019-Dec-11 02:06 355 4 gusting 15 7.8
2019-Dec-11 02:00 346 5 gusting 11 7.8
2019-Dec-11 01:54 347 7 gusting 13 8.3
2019-Dec-11 01:48 332 5 gusting 15 8.3
2019-Dec-11 01:42 337 6 gusting 13 8.3
2019-Dec-11 01:36 337 6 gusting 13 8.3
2019-Dec-11 01:30 330 9 gusting 19 8.3
2019-Dec-11 01:24 332 6 gusting 15 8.3
2019-Dec-11 01:18 335 6 gusting 21 8.9
2019-Dec-11 01:12 314 9 gusting 17 10.0
2019-Dec-11 01:06 248 4 gusting 6 10.6
2019-Dec-11 01:00 241 4 gusting 7 10.6
2019-Dec-11 00:54 235 4 gusting 7 10.0
2019-Dec-11 00:48 234 5 gusting 7 10.6
2019-Dec-11 00:42 234 5 gusting 7 10.6
2019-Dec-11 00:36 243 4 gusting 9 11.1
2019-Dec-11 00:30 245 5 gusting 7 11.1
2019-Dec-11 00:24 243 4 gusting 6 10.6
2019-Dec-11 00:18 239 5 gusting 6 11.1
2019-Dec-11 00:12 246 5 gusting 7 11.1
2019-Dec-11 00:06 248 5 gusting 8 11.1
2019-Dec-11 00:00 249 5 gusting 11 11.1
2019-Dec-10 23:54 250 6 gusting 11 11.1
2019-Dec-10 23:48 241 7 gusting 12 11.1
2019-Dec-10 23:42 241 8 gusting 13 11.1
2019-Dec-10 23:36 243 8 gusting 12 11.1
2019-Dec-10 23:30 236 7 gusting 11 11.1
2019-Dec-10 23:24 242 8 gusting 13 11.1
2019-Dec-10 23:18 239 7 gusting 12 11.1
2019-Dec-10 23:12 239 8 gusting 13 11.1
2019-Dec-10 23:06 240 8 gusting 13 11.1
2019-Dec-10 23:00 242 7 gusting 13 11.1
2019-Dec-10 22:54 243 9 gusting 13 11.1
2019-Dec-10 22:48 250 7 gusting 11 11.7
2019-Dec-10 22:42 249 7 gusting 14 11.1
2019-Dec-10 22:36 246 8 gusting 13 11.1
2019-Dec-10 22:30 241 7 gusting 11 10.6
2019-Dec-10 22:24 230 6 gusting 10 10.0
2019-Dec-10 22:18 237 6 gusting 9 10.6
2019-Dec-10 22:12 242 6 gusting 11 10.6
2019-Dec-10 22:06 231 6 gusting 9 10.6
2019-Dec-10 22:00 229 6 gusting 8 10.6
2019-Dec-10 21:54 234 5 gusting 8 10.6
2019-Dec-10 21:48 234 6 gusting 9 10.6
2019-Dec-10 21:42 237 6 gusting 9 10.6
2019-Dec-10 21:36 236 6 gusting 10 10.6
2019-Dec-10 21:30 236 7 gusting 11 11.1
2019-Dec-10 21:24 238 6 gusting 10 11.1
2019-Dec-10 21:18 243 6 gusting 11 11.1
2019-Dec-10 21:12 237 6 gusting 12 11.1
2019-Dec-10 21:06 237 7 gusting 12 11.1
2019-Dec-10 21:00 242 7 gusting 11 11.1
2019-Dec-10 20:54 234 5 gusting 9 10.6
2019-Dec-10 20:48 236 6 gusting 11 10.6
2019-Dec-10 20:42 241 6 gusting 11 11.1
2019-Dec-10 20:36 242 6 gusting 10 11.1
2019-Dec-10 20:30 235 6 gusting 8 10.6
2019-Dec-10 20:24 232 5 gusting 7 10.6
2019-Dec-10 20:18 233 5 gusting 8 10.6
2019-Dec-10 20:12 237 6 gusting 9 10.6
2019-Dec-10 20:06 237 7 gusting 10 10.6
2019-Dec-10 20:00 236 6 gusting 7 10.6
2019-Dec-10 19:54 230 5 gusting 7 10.6
2019-Dec-10 19:48 227 5 gusting 7 10.6
2019-Dec-10 19:42 223 4 gusting 6 10.6
2019-Dec-10 19:36 228 4 gusting 7 11.1
2019-Dec-10 19:30 233 5 gusting 7 11.1
2019-Dec-10 19:24 239 5 gusting 7 11.7
2019-Dec-10 19:18 242 5 gusting 10 11.7
2019-Dec-10 19:12 240 6 gusting 10 11.7
2019-Dec-10 19:06 238 6 gusting 10 11.7
2019-Dec-10 19:00 240 6 gusting 9 11.7